sensor_id;sensor_type;location;lat;lon;timestamp;P1;durP1;ratioP1;P2;durP2;ratioP2
27495;SDS011;14929;51.336;9.416;2023-12-04T00:01:35;14.60;;;10.60;;
27495;SDS011;14929;51.336;9.416;2023-12-04T00:04:11;16.77;;;11.48;;
27495;SDS011;14929;51.336;9.416;2023-12-04T00:06:38;15.90;;;10.35;;
27495;SDS011;14929;51.336;9.416;2023-12-04T00:09:06;14.80;;;10.02;;
27495;SDS011;14929;51.336;9.416;2023-12-04T00:11:34;14.63;;;10.20;;
27495;SDS011;14929;51.336;9.416;2023-12-04T00:14:01;13.82;;;10.10;;
27495;SDS011;14929;51.336;9.416;2023-12-04T00:16:30;14.35;;;11.18;;
27495;SDS011;14929;51.336;9.416;2023-12-04T00:19:00;14.07;;;10.82;;
27495;SDS011;14929;51.336;9.416;2023-12-04T00:21:28;14.18;;;10.68;;
27495;SDS011;14929;51.336;9.416;2023-12-04T00:23:55;16.52;;;10.90;;
27495;SDS011;14929;51.336;9.416;2023-12-04T00:26:23;14.00;;;11.00;;
27495;SDS011;14929;51.336;9.416;2023-12-04T00:28:50;14.65;;;10.65;;
27495;SDS011;14929;51.336;9.416;2023-12-04T00:31:18;14.23;;;10.20;;
27495;SDS011;14929;51.336;9.416;2023-12-04T00:33:46;13.40;;;9.90;;
27495;SDS011;14929;51.336;9.416;2023-12-04T00:36:14;14.30;;;9.90;;
27495;SDS011;14929;51.336;9.416;2023-12-04T00:38:41;13.25;;;10.38;;
27495;SDS011;14929;51.336;9.416;2023-12-04T00:41:09;15.68;;;10.50;;
27495;SDS011;14929;51.336;9.416;2023-12-04T00:43:36;16.52;;;10.98;;
27495;SDS011;14929;51.336;9.416;2023-12-04T00:46:04;13.77;;;10.35;;
27495;SDS011;14929;51.336;9.416;2023-12-04T00:48:32;14.50;;;9.68;;
27495;SDS011;14929;51.336;9.416;2023-12-04T00:51:01;14.90;;;10.63;;
27495;SDS011;14929;51.336;9.416;2023-12-04T00:53:28;13.90;;;10.18;;
27495;SDS011;14929;51.336;9.416;2023-12-04T00:55:55;13.90;;;10.15;;
27495;SDS011;14929;51.336;9.416;2023-12-04T00:58:23;16.00;;;10.93;;
27495;SDS011;14929;51.336;9.416;2023-12-04T01:00:50;14.27;;;9.65;;
27495;SDS011;14929;51.336;9.416;2023-12-04T01:03:18;12.05;;;9.32;;
27495;SDS011;14929;51.336;9.416;2023-12-04T01:05:45;14.07;;;9.82;;
27495;SDS011;14929;51.336;9.416;2023-12-04T01:08:14;13.05;;;9.65;;
27495;SDS011;14929;51.336;9.416;2023-12-04T01:10:41;13.77;;;9.98;;
27495;SDS011;14929;51.336;9.416;2023-12-04T01:13:09;13.52;;;9.15;;
27495;SDS011;14929;51.336;9.416;2023-12-04T01:15:36;14.02;;;10.85;;
27495;SDS011;14929;51.336;9.416;2023-12-04T01:18:04;13.80;;;9.90;;
27495;SDS011;14929;51.336;9.416;2023-12-04T01:20:32;12.90;;;9.43;;
27495;SDS011;14929;51.336;9.416;2023-12-04T01:22:59;13.30;;;10.13;;
27495;SDS011;14929;51.336;9.416;2023-12-04T01:25:28;11.15;;;8.02;;
27495;SDS011;14929;51.336;9.416;2023-12-04T01:27:56;13.70;;;9.48;;
27495;SDS011;14929;51.336;9.416;2023-12-04T01:30:23;13.82;;;9.07;;
27495;SDS011;14929;51.336;9.416;2023-12-04T01:32:50;13.57;;;10.07;;
27495;SDS011;14929;51.336;9.416;2023-12-04T01:35:18;11.23;;;8.40;;
27495;SDS011;14929;51.336;9.416;2023-12-04T01:37:45;11.10;;;7.95;;
27495;SDS011;14929;51.336;9.416;2023-12-04T01:40:13;12.82;;;9.45;;
27495;SDS011;14929;51.336;9.416;2023-12-04T01:42:43;11.77;;;8.65;;
27495;SDS011;14929;51.336;9.416;2023-12-04T01:45:10;11.38;;;8.82;;
27495;SDS011;14929;51.336;9.416;2023-12-04T01:47:38;11.60;;;9.57;;
27495;SDS011;14929;51.336;9.416;2023-12-04T01:50:06;12.35;;;9.43;;
27495;SDS011;14929;51.336;9.416;2023-12-04T01:52:35;11.77;;;8.85;;
27495;SDS011;14929;51.336;9.416;2023-12-04T01:55:03;11.88;;;8.45;;
27495;SDS011;14929;51.336;9.416;2023-12-04T01:57:31;12.05;;;8.95;;
27495;SDS011;14929;51.336;9.416;2023-12-04T02:00:00;11.95;;;8.60;;
27495;SDS011;14929;51.336;9.416;2023-12-04T02:02:28;13.75;;;9.43;;
27495;SDS011;14929;51.336;9.416;2023-12-04T02:04:55;12.15;;;9.32;;
27495;SDS011;14929;51.336;9.416;2023-12-04T02:07:23;12.65;;;9.00;;
27495;SDS011;14929;51.336;9.416;2023-12-04T02:09:51;11.38;;;8.50;;
27495;SDS011;14929;51.336;9.416;2023-12-04T02:12:18;12.02;;;9.20;;
27495;SDS011;14929;51.336;9.416;2023-12-04T02:14:46;13.77;;;9.80;;
27495;SDS011;14929;51.336;9.416;2023-12-04T02:17:15;10.75;;;8.55;;
27495;SDS011;14929;51.336;9.416;2023-12-04T02:19:43;12.25;;;9.02;;
27495;SDS011;14929;51.336;9.416;2023-12-04T02:22:10;12.25;;;9.52;;
27495;SDS011;14929;51.336;9.416;2023-12-04T02:24:39;13.35;;;10.10;;
27495;SDS011;14929;51.336;9.416;2023-12-04T02:27:08;12.45;;;8.77;;
27495;SDS011;14929;51.336;9.416;2023-12-04T02:29:40;11.15;;;8.98;;
27495;SDS011;14929;51.336;9.416;2023-12-04T02:32:13;14.20;;;8.82;;
27495;SDS011;14929;51.336;9.416;2023-12-04T02:34:43;13.48;;;10.63;;
27495;SDS011;14929;51.336;9.416;2023-12-04T02:37:11;12.90;;;9.40;;
27495;SDS011;14929;51.336;9.416;2023-12-04T02:39:40;13.32;;;9.73;;
27495;SDS011;14929;51.336;9.416;2023-12-04T02:42:08;14.07;;;9.95;;
27495;SDS011;14929;51.336;9.416;2023-12-04T02:44:35;13.05;;;9.80;;
27495;SDS011;14929;51.336;9.416;2023-12-04T02:47:03;15.43;;;10.73;;
27495;SDS011;14929;51.336;9.416;2023-12-04T02:49:29;13.98;;;9.25;;
27495;SDS011;14929;51.336;9.416;2023-12-04T02:51:56;12.00;;;9.23;;
27495;SDS011;14929;51.336;9.416;2023-12-04T02:54:24;13.60;;;9.65;;
27495;SDS011;14929;51.336;9.416;2023-12-04T02:56:53;12.57;;;9.27;;
27495;SDS011;14929;51.336;9.416;2023-12-04T02:59:20;14.30;;;10.88;;
27495;SDS011;14929;51.336;9.416;2023-12-04T03:01:48;13.15;;;10.55;;
27495;SDS011;14929;51.336;9.416;2023-12-04T03:04:15;12.85;;;9.68;;
27495;SDS011;14929;51.336;9.416;2023-12-04T03:06:43;12.98;;;9.63;;
27495;SDS011;14929;51.336;9.416;2023-12-04T03:09:10;14.45;;;10.07;;
27495;SDS011;14929;51.336;9.416;2023-12-04T03:11:39;15.35;;;11.93;;
27495;SDS011;14929;51.336;9.416;2023-12-04T03:14:08;16.67;;;11.07;;
27495;SDS011;14929;51.336;9.416;2023-12-04T03:16:35;15.82;;;10.57;;
27495;SDS011;14929;51.336;9.416;2023-12-04T03:19:02;13.90;;;10.85;;
27495;SDS011;14929;51.336;9.416;2023-12-04T03:21:30;14.20;;;9.45;;
27495;SDS011;14929;51.336;9.416;2023-12-04T03:23:58;11.85;;;8.65;;
27495;SDS011;14929;51.336;9.416;2023-12-04T03:26:25;14.20;;;10.82;;
27495;SDS011;14929;51.336;9.416;2023-12-04T03:28:53;12.65;;;9.35;;
27495;SDS011;14929;51.336;9.416;2023-12-04T03:31:22;11.98;;;10.05;;
27495;SDS011;14929;51.336;9.416;2023-12-04T03:33:50;11.90;;;8.95;;
27495;SDS011;14929;51.336;9.416;2023-12-04T03:36:17;14.43;;;11.57;;
27495;SDS011;14929;51.336;9.416;2023-12-04T03:38:45;11.48;;;9.73;;
27495;SDS011;14929;51.336;9.416;2023-12-04T03:41:15;13.02;;;9.73;;
27495;SDS011;14929;51.336;9.416;2023-12-04T03:43:43;17.45;;;11.20;;
27495;SDS011;14929;51.336;9.416;2023-12-04T03:46:10;14.77;;;11.02;;
27495;SDS011;14929;51.336;9.416;2023-12-04T03:48:39;13.38;;;10.30;;
27495;SDS011;14929;51.336;9.416;2023-12-04T03:51:07;13.73;;;10.13;;
27495;SDS011;14929;51.336;9.416;2023-12-04T03:53:35;13.77;;;9.88;;
27495;SDS011;14929;51.336;9.416;2023-12-04T03:56:02;13.73;;;9.65;;
27495;SDS011;14929;51.336;9.416;2023-12-04T03:58:31;18.02;;;10.80;;
27495;SDS011;14929;51.336;9.416;2023-12-04T04:00:59;15.05;;;10.55;;
27495;SDS011;14929;51.336;9.416;2023-12-04T04:03:26;14.43;;;10.30;;
27495;SDS011;14929;51.336;9.416;2023-12-04T04:05:55;13.55;;;10.50;;
27495;SDS011;14929;51.336;9.416;2023-12-04T04:08:22;15.23;;;10.45;;
27495;SDS011;14929;51.336;9.416;2023-12-04T04:10:50;14.32;;;10.23;;
27495;SDS011;14929;51.336;9.416;2023-12-04T04:13:17;13.48;;;10.30;;
27495;SDS011;14929;51.336;9.416;2023-12-04T04:15:45;12.95;;;9.07;;
27495;SDS011;14929;51.336;9.416;2023-12-04T04:18:12;13.43;;;8.82;;
27495;SDS011;14929;51.336;9.416;2023-12-04T04:20:39;13.10;;;8.73;;
27495;SDS011;14929;51.336;9.416;2023-12-04T04:23:08;15.02;;;10.30;;
27495;SDS011;14929;51.336;9.416;2023-12-04T04:25:35;13.43;;;10.15;;
27495;SDS011;14929;51.336;9.416;2023-12-04T04:28:03;11.55;;;9.27;;
27495;SDS011;14929;51.336;9.416;2023-12-04T04:30:30;11.25;;;7.95;;
27495;SDS011;14929;51.336;9.416;2023-12-04T04:32:58;11.65;;;7.97;;
27495;SDS011;14929;51.336;9.416;2023-12-04T04:35:25;11.93;;;8.55;;
27495;SDS011;14929;51.336;9.416;2023-12-04T04:37:53;14.88;;;9.35;;
27495;SDS011;14929;51.336;9.416;2023-12-04T04:40:21;10.68;;;8.20;;
27495;SDS011;14929;51.336;9.416;2023-12-04T04:42:49;11.35;;;7.97;;
27495;SDS011;14929;51.336;9.416;2023-12-04T04:45:22;13.63;;;8.68;;
27495;SDS011;14929;51.336;9.416;2023-12-04T04:47:49;14.15;;;10.40;;
27495;SDS011;14929;51.336;9.416;2023-12-04T04:50:17;15.32;;;9.90;;
27495;SDS011;14929;51.336;9.416;2023-12-04T04:52:44;11.60;;;9.55;;
27495;SDS011;14929;51.336;9.416;2023-12-04T04:55:12;13.18;;;10.77;;
27495;SDS011;14929;51.336;9.416;2023-12-04T04:57:41;11.77;;;8.38;;
27495;SDS011;14929;51.336;9.416;2023-12-04T05:00:08;11.70;;;8.25;;
27495;SDS011;14929;51.336;9.416;2023-12-04T05:02:37;12.85;;;9.45;;
27495;SDS011;14929;51.336;9.416;2023-12-04T05:05:06;12.55;;;9.05;;
27495;SDS011;14929;51.336;9.416;2023-12-04T05:07:34;13.88;;;10.10;;
27495;SDS011;14929;51.336;9.416;2023-12-04T05:10:01;13.35;;;9.27;;
27495;SDS011;14929;51.336;9.416;2023-12-04T05:12:29;13.90;;;9.70;;
27495;SDS011;14929;51.336;9.416;2023-12-04T05:14:57;11.88;;;8.88;;
27495;SDS011;14929;51.336;9.416;2023-12-04T05:17:25;12.45;;;8.55;;
27495;SDS011;14929;51.336;9.416;2023-12-04T05:19:52;12.07;;;9.45;;
27495;SDS011;14929;51.336;9.416;2023-12-04T05:22:20;12.82;;;8.93;;
27495;SDS011;14929;51.336;9.416;2023-12-04T05:24:47;12.88;;;9.25;;
27495;SDS011;14929;51.336;9.416;2023-12-04T05:27:14;15.68;;;9.10;;
27495;SDS011;14929;51.336;9.416;2023-12-04T05:29:42;11.82;;;8.88;;
27495;SDS011;14929;51.336;9.416;2023-12-04T05:32:11;9.45;;;7.88;;
27495;SDS011;14929;51.336;9.416;2023-12-04T05:34:39;11.88;;;8.88;;
27495;SDS011;14929;51.336;9.416;2023-12-04T05:37:06;13.00;;;9.95;;
27495;SDS011;14929;51.336;9.416;2023-12-04T05:39:34;13.20;;;9.65;;
27495;SDS011;14929;51.336;9.416;2023-12-04T05:42:01;11.93;;;8.82;;
27495;SDS011;14929;51.336;9.416;2023-12-04T05:44:29;9.18;;;7.95;;
27495;SDS011;14929;51.336;9.416;2023-12-04T05:46:57;13.70;;;9.13;;
27495;SDS011;14929;51.336;9.416;2023-12-04T05:49:26;12.27;;;9.00;;
27495;SDS011;14929;51.336;9.416;2023-12-04T05:51:55;11.32;;;8.88;;
27495;SDS011;14929;51.336;9.416;2023-12-04T05:54:23;11.40;;;8.93;;
27495;SDS011;14929;51.336;9.416;2023-12-04T05:56:50;12.52;;;9.88;;
27495;SDS011;14929;51.336;9.416;2023-12-04T05:59:17;10.68;;;8.88;;
27495;SDS011;14929;51.336;9.416;2023-12-04T06:01:45;14.55;;;11.07;;
27495;SDS011;14929;51.336;9.416;2023-12-04T06:04:13;13.77;;;10.63;;
27495;SDS011;14929;51.336;9.416;2023-12-04T06:06:42;12.07;;;9.35;;
27495;SDS011;14929;51.336;9.416;2023-12-04T06:09:09;15.35;;;11.15;;
27495;SDS011;14929;51.336;9.416;2023-12-04T06:11:36;13.02;;;9.77;;
27495;SDS011;14929;51.336;9.416;2023-12-04T06:14:05;10.45;;;8.90;;
27495;SDS011;14929;51.336;9.416;2023-12-04T06:16:32;12.02;;;9.55;;
27495;SDS011;14929;51.336;9.416;2023-12-04T06:18:59;13.27;;;9.90;;
27495;SDS011;14929;51.336;9.416;2023-12-04T06:21:27;16.75;;;11.48;;
27495;SDS011;14929;51.336;9.416;2023-12-04T06:23:56;13.82;;;9.48;;
27495;SDS011;14929;51.336;9.416;2023-12-04T06:26:25;17.25;;;12.05;;
27495;SDS011;14929;51.336;9.416;2023-12-04T06:28:53;17.48;;;11.18;;
27495;SDS011;14929;51.336;9.416;2023-12-04T06:31:21;14.40;;;9.82;;
27495;SDS011;14929;51.336;9.416;2023-12-04T06:33:50;14.27;;;9.77;;
27495;SDS011;14929;51.336;9.416;2023-12-04T06:36:18;13.45;;;9.70;;
27495;SDS011;14929;51.336;9.416;2023-12-04T06:38:46;12.18;;;9.27;;
27495;SDS011;14929;51.336;9.416;2023-12-04T06:41:16;14.18;;;10.05;;
27495;SDS011;14929;51.336;9.416;2023-12-04T06:43:46;11.02;;;8.38;;
27495;SDS011;14929;51.336;9.416;2023-12-04T06:46:14;11.20;;;9.25;;
27495;SDS011;14929;51.336;9.416;2023-12-04T06:48:42;12.27;;;9.10;;
27495;SDS011;14929;51.336;9.416;2023-12-04T06:51:10;13.00;;;9.60;;
27495;SDS011;14929;51.336;9.416;2023-12-04T06:53:38;12.20;;;10.48;;
27495;SDS011;14929;51.336;9.416;2023-12-04T06:56:06;13.77;;;10.32;;
27495;SDS011;14929;51.336;9.416;2023-12-04T06:58:36;13.35;;;10.88;;
27495;SDS011;14929;51.336;9.416;2023-12-04T07:01:04;12.73;;;9.75;;
27495;SDS011;14929;51.336;9.416;2023-12-04T07:03:32;13.80;;;10.52;;
27495;SDS011;14929;51.336;9.416;2023-12-04T07:05:59;15.73;;;9.75;;
27495;SDS011;14929;51.336;9.416;2023-12-04T07:08:26;12.82;;;9.57;;
27495;SDS011;14929;51.336;9.416;2023-12-04T07:10:54;12.57;;;10.57;;
27495;SDS011;14929;51.336;9.416;2023-12-04T07:13:21;13.48;;;10.45;;
27495;SDS011;14929;51.336;9.416;2023-12-04T07:15:50;14.75;;;10.48;;
27495;SDS011;14929;51.336;9.416;2023-12-04T07:18:17;14.00;;;9.30;;
27495;SDS011;14929;51.336;9.416;2023-12-04T07:20:45;12.40;;;9.40;;
27495;SDS011;14929;51.336;9.416;2023-12-04T07:23:12;13.18;;;9.63;;
27495;SDS011;14929;51.336;9.416;2023-12-04T07:25:40;15.00;;;10.90;;
27495;SDS011;14929;51.336;9.416;2023-12-04T07:28:08;14.38;;;9.50;;
27495;SDS011;14929;51.336;9.416;2023-12-04T07:30:35;12.93;;;9.23;;
27495;SDS011;14929;51.336;9.416;2023-12-04T07:33:04;15.00;;;11.10;;
27495;SDS011;14929;51.336;9.416;2023-12-04T07:35:31;13.80;;;10.52;;
27495;SDS011;14929;51.336;9.416;2023-12-04T07:37:59;12.93;;;10.68;;
27495;SDS011;14929;51.336;9.416;2023-12-04T07:40:26;14.45;;;10.70;;
27495;SDS011;14929;51.336;9.416;2023-12-04T07:42:53;15.30;;;11.38;;
27495;SDS011;14929;51.336;9.416;2023-12-04T07:45:21;13.50;;;9.73;;
27495;SDS011;14929;51.336;9.416;2023-12-04T07:47:49;13.02;;;10.18;;
27495;SDS011;14929;51.336;9.416;2023-12-04T07:50:17;13.38;;;9.90;;
27495;SDS011;14929;51.336;9.416;2023-12-04T07:52:45;12.35;;;10.10;;
27495;SDS011;14929;51.336;9.416;2023-12-04T07:55:12;12.20;;;9.45;;
27495;SDS011;14929;51.336;9.416;2023-12-04T07:57:40;11.43;;;9.30;;
27495;SDS011;14929;51.336;9.416;2023-12-04T08:00:08;13.80;;;9.77;;
27495;SDS011;14929;51.336;9.416;2023-12-04T08:02:37;11.73;;;8.52;;
27495;SDS011;14929;51.336;9.416;2023-12-04T08:05:04;11.57;;;8.77;;
27495;SDS011;14929;51.336;9.416;2023-12-04T08:07:34;10.38;;;7.75;;
27495;SDS011;14929;51.336;9.416;2023-12-04T08:10:01;13.23;;;9.15;;
27495;SDS011;14929;51.336;9.416;2023-12-04T08:12:29;11.07;;;8.45;;
27495;SDS011;14929;51.336;9.416;2023-12-04T08:14:57;14.40;;;9.13;;
27495;SDS011;14929;51.336;9.416;2023-12-04T08:17:24;10.93;;;8.23;;
27495;SDS011;14929;51.336;9.416;2023-12-04T08:19:52;11.38;;;8.57;;
27495;SDS011;14929;51.336;9.416;2023-12-04T08:22:19;13.27;;;8.80;;
27495;SDS011;14929;51.336;9.416;2023-12-04T08:24:48;13.23;;;9.32;;
27495;SDS011;14929;51.336;9.416;2023-12-04T08:27:15;12.57;;;8.85;;
27495;SDS011;14929;51.336;9.416;2023-12-04T08:29:43;11.50;;;9.02;;
27495;SDS011;14929;51.336;9.416;2023-12-04T08:32:11;10.25;;;7.97;;
27495;SDS011;14929;51.336;9.416;2023-12-04T08:34:38;12.02;;;8.65;;
27495;SDS011;14929;51.336;9.416;2023-12-04T08:37:05;12.68;;;9.75;;
27495;SDS011;14929;51.336;9.416;2023-12-04T08:39:33;11.77;;;9.27;;
27495;SDS011;14929;51.336;9.416;2023-12-04T08:42:02;11.93;;;9.07;;
27495;SDS011;14929;51.336;9.416;2023-12-04T08:44:30;13.20;;;8.48;;
27495;SDS011;14929;51.336;9.416;2023-12-04T08:46:57;9.77;;;7.95;;
27495;SDS011;14929;51.336;9.416;2023-12-04T08:49:25;10.52;;;8.93;;
27495;SDS011;14929;51.336;9.416;2023-12-04T08:51:52;14.70;;;10.18;;
27495;SDS011;14929;51.336;9.416;2023-12-04T08:54:19;12.10;;;8.77;;
27495;SDS011;14929;51.336;9.416;2023-12-04T08:56:47;10.25;;;8.48;;
27495;SDS011;14929;51.336;9.416;2023-12-04T08:59:16;10.60;;;7.80;;
27495;SDS011;14929;51.336;9.416;2023-12-04T09:01:43;12.40;;;8.07;;
27495;SDS011;14929;51.336;9.416;2023-12-04T09:04:11;9.88;;;8.07;;
27495;SDS011;14929;51.336;9.416;2023-12-04T09:06:38;13.25;;;9.43;;
27495;SDS011;14929;51.336;9.416;2023-12-04T09:09:06;11.27;;;9.25;;
27495;SDS011;14929;51.336;9.416;2023-12-04T09:11:33;9.63;;;8.48;;
27495;SDS011;14929;51.336;9.416;2023-12-04T09:14:01;10.95;;;8.75;;
27495;SDS011;14929;51.336;9.416;2023-12-04T09:16:30;12.77;;;9.30;;
27495;SDS011;14929;51.336;9.416;2023-12-04T09:18:57;10.57;;;8.52;;
27495;SDS011;14929;51.336;9.416;2023-12-04T09:21:24;12.27;;;9.55;;
27495;SDS011;14929;51.336;9.416;2023-12-04T09:23:52;9.90;;;8.38;;
27495;SDS011;14929;51.336;9.416;2023-12-04T09:26:20;11.95;;;9.73;;
27495;SDS011;14929;51.336;9.416;2023-12-04T09:28:47;11.80;;;8.50;;
27495;SDS011;14929;51.336;9.416;2023-12-04T09:31:14;11.55;;;8.45;;
27495;SDS011;14929;51.336;9.416;2023-12-04T09:33:43;9.90;;;8.52;;
27495;SDS011;14929;51.336;9.416;2023-12-04T09:36:12;11.60;;;8.57;;
27495;SDS011;14929;51.336;9.416;2023-12-04T09:38:39;9.85;;;8.45;;
27495;SDS011;14929;51.336;9.416;2023-12-04T09:41:08;12.73;;;8.80;;
27495;SDS011;14929;51.336;9.416;2023-12-04T09:43:38;12.45;;;8.57;;
27495;SDS011;14929;51.336;9.416;2023-12-04T09:46:06;10.75;;;8.43;;
27495;SDS011;14929;51.336;9.416;2023-12-04T09:48:34;10.07;;;7.90;;
27495;SDS011;14929;51.336;9.416;2023-12-04T09:51:04;10.77;;;9.07;;
27495;SDS011;14929;51.336;9.416;2023-12-04T09:53:32;10.32;;;7.90;;
27495;SDS011;14929;51.336;9.416;2023-12-04T09:56:00;11.18;;;8.02;;
27495;SDS011;14929;51.336;9.416;2023-12-04T09:58:31;13.57;;;9.55;;
27495;SDS011;14929;51.336;9.416;2023-12-04T10:00:58;10.88;;;8.02;;
27495;SDS011;14929;51.336;9.416;2023-12-04T10:03:27;13.43;;;9.70;;
27495;SDS011;14929;51.336;9.416;2023-12-04T10:05:55;12.15;;;9.35;;
27495;SDS011;14929;51.336;9.416;2023-12-04T10:08:23;11.88;;;8.60;;
27495;SDS011;14929;51.336;9.416;2023-12-04T10:10:51;11.98;;;8.93;;
27495;SDS011;14929;51.336;9.416;2023-12-04T10:13:19;11.75;;;8.45;;
27495;SDS011;14929;51.336;9.416;2023-12-04T10:15:46;12.07;;;8.35;;
27495;SDS011;14929;51.336;9.416;2023-12-04T10:20:59;11.82;;;9.23;;
27495;SDS011;14929;51.336;9.416;2023-12-04T10:23:39;12.00;;;8.52;;
27495;SDS011;14929;51.336;9.416;2023-12-04T10:26:08;11.18;;;8.85;;
27495;SDS011;14929;51.336;9.416;2023-12-04T10:28:36;10.93;;;8.98;;
27495;SDS011;14929;51.336;9.416;2023-12-04T10:31:04;10.45;;;8.15;;
27495;SDS011;14929;51.336;9.416;2023-12-04T10:33:32;10.43;;;7.55;;
27495;SDS011;14929;51.336;9.416;2023-12-04T10:36:00;10.90;;;8.77;;
27495;SDS011;14929;51.336;9.416;2023-12-04T10:38:29;9.77;;;7.68;;
27495;SDS011;14929;51.336;9.416;2023-12-04T10:40:58;8.73;;;7.68;;
27495;SDS011;14929;51.336;9.416;2023-12-04T10:43:42;11.88;;;8.77;;
27495;SDS011;14929;51.336;9.416;2023-12-04T10:46:14;10.43;;;7.97;;
27495;SDS011;14929;51.336;9.416;2023-12-04T10:48:42;10.52;;;8.55;;
27495;SDS011;14929;51.336;9.416;2023-12-04T10:51:12;10.57;;;7.88;;
27495;SDS011;14929;51.336;9.416;2023-12-04T10:53:40;9.00;;;7.97;;
27495;SDS011;14929;51.336;9.416;2023-12-04T10:56:09;10.30;;;8.45;;
27495;SDS011;14929;51.336;9.416;2023-12-04T10:58:42;11.75;;;9.10;;
27495;SDS011;14929;51.336;9.416;2023-12-04T11:01:10;10.00;;;8.38;;
27495;SDS011;14929;51.336;9.416;2023-12-04T11:03:40;12.80;;;9.48;;
27495;SDS011;14929;51.336;9.416;2023-12-04T11:06:11;9.80;;;7.78;;
27495;SDS011;14929;51.336;9.416;2023-12-04T11:08:39;12.60;;;9.32;;
27495;SDS011;14929;51.336;9.416;2023-12-04T11:11:12;8.90;;;7.03;;
27495;SDS011;14929;51.336;9.416;2023-12-04T11:13:41;8.88;;;7.55;;
27495;SDS011;14929;51.336;9.416;2023-12-04T11:16:12;8.55;;;7.28;;
27495;SDS011;14929;51.336;9.416;2023-12-04T11:18:46;6.68;;;5.78;;
27495;SDS011;14929;51.336;9.416;2023-12-04T11:21:17;9.27;;;6.80;;
27495;SDS011;14929;51.336;9.416;2023-12-04T11:23:46;8.45;;;7.03;;
27495;SDS011;14929;51.336;9.416;2023-12-04T11:26:15;9.65;;;7.65;;
27495;SDS011;14929;51.336;9.416;2023-12-04T11:28:43;7.82;;;6.85;;
27495;SDS011;14929;51.336;9.416;2023-12-04T11:31:11;7.55;;;6.68;;
27495;SDS011;14929;51.336;9.416;2023-12-04T11:33:40;6.63;;;5.78;;
27495;SDS011;14929;51.336;9.416;2023-12-04T11:36:08;8.60;;;6.75;;
27495;SDS011;14929;51.336;9.416;2023-12-04T11:38:37;7.20;;;6.45;;
27495;SDS011;14929;51.336;9.416;2023-12-04T11:41:17;8.13;;;6.57;;
27495;SDS011;14929;51.336;9.416;2023-12-04T11:43:47;5.95;;;5.35;;
27495;SDS011;14929;51.336;9.416;2023-12-04T11:46:18;6.88;;;6.00;;
27495;SDS011;14929;51.336;9.416;2023-12-04T11:48:48;7.82;;;6.68;;
27495;SDS011;14929;51.336;9.416;2023-12-04T11:54:22;6.88;;;5.38;;
27495;SDS011;14929;51.336;9.416;2023-12-04T11:56:59;8.77;;;6.97;;
27495;SDS011;14929;51.336;9.416;2023-12-04T11:59:46;7.75;;;6.47;;
27495;SDS011;14929;51.336;9.416;2023-12-04T12:02:14;6.03;;;5.43;;
27495;SDS011;14929;51.336;9.416;2023-12-04T12:04:42;9.25;;;6.30;;
27495;SDS011;14929;51.336;9.416;2023-12-04T12:07:11;8.65;;;6.28;;
27495;SDS011;14929;51.336;9.416;2023-12-04T12:09:38;7.75;;;6.15;;
27495;SDS011;14929;51.336;9.416;2023-12-04T12:12:07;7.50;;;5.95;;
27495;SDS011;14929;51.336;9.416;2023-12-04T12:14:35;8.32;;;6.18;;
27495;SDS011;14929;51.336;9.416;2023-12-04T12:17:04;7.40;;;5.57;;
27495;SDS011;14929;51.336;9.416;2023-12-04T12:19:31;7.15;;;5.90;;
27495;SDS011;14929;51.336;9.416;2023-12-04T12:21:59;7.03;;;5.22;;
27495;SDS011;14929;51.336;9.416;2023-12-04T12:24:28;6.50;;;5.25;;
27495;SDS011;14929;51.336;9.416;2023-12-04T12:26:55;4.75;;;4.22;;
27495;SDS011;14929;51.336;9.416;2023-12-04T12:29:24;8.50;;;6.20;;
27495;SDS011;14929;51.336;9.416;2023-12-04T12:31:51;6.82;;;6.13;;
27495;SDS011;14929;51.336;9.416;2023-12-04T12:34:19;7.05;;;5.93;;
27495;SDS011;14929;51.336;9.416;2023-12-04T12:36:46;7.43;;;5.60;;
27495;SDS011;14929;51.336;9.416;2023-12-04T12:39:14;5.90;;;5.07;;
27495;SDS011;14929;51.336;9.416;2023-12-04T12:41:46;7.93;;;5.53;;
27495;SDS011;14929;51.336;9.416;2023-12-04T12:44:14;8.90;;;5.32;;
27495;SDS011;14929;51.336;9.416;2023-12-04T12:46:46;5.50;;;4.97;;
27495;SDS011;14929;51.336;9.416;2023-12-04T12:49:16;6.32;;;5.03;;
27495;SDS011;14929;51.336;9.416;2023-12-04T12:51:45;7.93;;;5.65;;
27495;SDS011;14929;51.336;9.416;2023-12-04T12:54:13;7.05;;;5.70;;
27495;SDS011;14929;51.336;9.416;2023-12-04T12:56:40;9.73;;;6.40;;
27495;SDS011;14929;51.336;9.416;2023-12-04T12:59:08;7.15;;;5.53;;
27495;SDS011;14929;51.336;9.416;2023-12-04T13:01:35;5.75;;;4.90;;
27495;SDS011;14929;51.336;9.416;2023-12-04T13:04:05;6.93;;;5.50;;
27495;SDS011;14929;51.336;9.416;2023-12-04T13:06:34;7.05;;;5.45;;
27495;SDS011;14929;51.336;9.416;2023-12-04T13:09:02;7.20;;;5.00;;
27495;SDS011;14929;51.336;9.416;2023-12-04T13:11:31;8.25;;;6.32;;
27495;SDS011;14929;51.336;9.416;2023-12-04T13:13:58;7.60;;;5.75;;
27495;SDS011;14929;51.336;9.416;2023-12-04T13:16:27;6.25;;;5.03;;
27495;SDS011;14929;51.336;9.416;2023-12-04T13:18:55;7.03;;;5.90;;
27495;SDS011;14929;51.336;9.416;2023-12-04T13:21:23;7.85;;;6.50;;
27495;SDS011;14929;51.336;9.416;2023-12-04T13:23:51;7.03;;;5.88;;
27495;SDS011;14929;51.336;9.416;2023-12-04T13:26:18;6.82;;;5.50;;
27495;SDS011;14929;51.336;9.416;2023-12-04T13:28:46;7.70;;;5.85;;
27495;SDS011;14929;51.336;9.416;2023-12-04T13:31:14;6.50;;;5.47;;
27495;SDS011;14929;51.336;9.416;2023-12-04T13:33:41;7.70;;;5.80;;
27495;SDS011;14929;51.336;9.416;2023-12-04T13:36:11;7.25;;;5.47;;
27495;SDS011;14929;51.336;9.416;2023-12-04T13:38:40;6.25;;;4.90;;
27495;SDS011;14929;51.336;9.416;2023-12-04T13:41:08;5.85;;;5.25;;
27495;SDS011;14929;51.336;9.416;2023-12-04T13:44:04;6.43;;;5.38;;
27495;SDS011;14929;51.336;9.416;2023-12-04T13:46:32;7.18;;;4.97;;
27495;SDS011;14929;51.336;9.416;2023-12-04T13:48:59;5.85;;;5.20;;
27495;SDS011;14929;51.336;9.416;2023-12-04T13:51:26;9.75;;;5.57;;
27495;SDS011;14929;51.336;9.416;2023-12-04T13:53:55;5.25;;;4.75;;
27495;SDS011;14929;51.336;9.416;2023-12-04T13:56:34;6.07;;;5.15;;
27495;SDS011;14929;51.336;9.416;2023-12-04T13:59:09;5.25;;;4.45;;
27495;SDS011;14929;51.336;9.416;2023-12-04T14:01:43;4.13;;;3.58;;
27495;SDS011;14929;51.336;9.416;2023-12-04T14:04:11;4.38;;;3.97;;
27495;SDS011;14929;51.336;9.416;2023-12-04T14:06:38;4.63;;;4.20;;
27495;SDS011;14929;51.336;9.416;2023-12-04T14:09:07;6.82;;;4.90;;
27495;SDS011;14929;51.336;9.416;2023-12-04T14:11:39;5.65;;;4.55;;
27495;SDS011;14929;51.336;9.416;2023-12-04T14:14:10;6.15;;;4.53;;
27495;SDS011;14929;51.336;9.416;2023-12-04T14:16:38;5.75;;;4.28;;
27495;SDS011;14929;51.336;9.416;2023-12-04T14:19:07;5.70;;;5.00;;
27495;SDS011;14929;51.336;9.416;2023-12-04T14:21:34;4.80;;;4.30;;
27495;SDS011;14929;51.336;9.416;2023-12-04T14:24:02;6.75;;;5.70;;
27495;SDS011;14929;51.336;9.416;2023-12-04T14:26:31;5.55;;;4.55;;
27495;SDS011;14929;51.336;9.416;2023-12-04T14:28:58;4.55;;;3.97;;
27495;SDS011;14929;51.336;9.416;2023-12-04T14:31:28;5.07;;;3.92;;
27495;SDS011;14929;51.336;9.416;2023-12-04T14:33:56;5.13;;;4.30;;
27495;SDS011;14929;51.336;9.416;2023-12-04T14:36:23;7.13;;;5.68;;
27495;SDS011;14929;51.336;9.416;2023-12-04T14:38:52;5.47;;;4.88;;
27495;SDS011;14929;51.336;9.416;2023-12-04T14:41:19;5.30;;;4.75;;
27495;SDS011;14929;51.336;9.416;2023-12-04T14:43:48;6.43;;;4.60;;
27495;SDS011;14929;51.336;9.416;2023-12-04T14:46:15;5.43;;;4.82;;
27495;SDS011;14929;51.336;9.416;2023-12-04T14:48:43;6.97;;;5.78;;